sensor_id;sensor_type;location;lat;lon;timestamp;temperature;humidity
2611;DHT22;5612;51.134;17.058;2023-03-23T00:00:32;11.90;1.00
2611;DHT22;5612;51.134;17.058;2023-03-23T00:03:00;11.90;1.00
2611;DHT22;5612;51.134;17.058;2023-03-23T00:05:28;11.80;1.00
2611;DHT22;5612;51.134;17.058;2023-03-23T00:07:55;11.80;1.00
2611;DHT22;5612;51.134;17.058;2023-03-23T00:10:23;11.80;1.00
2611;DHT22;5612;51.134;17.058;2023-03-23T00:12:53;11.80;1.00
2611;DHT22;5612;51.134;17.058;2023-03-23T00:15:23;11.70;1.00
2611;DHT22;5612;51.134;17.058;2023-03-23T00:17:51;11.80;1.00
2611;DHT22;5612;51.134;17.058;2023-03-23T00:20:19;11.80;1.00
2611;DHT22;5612;51.134;17.058;2023-03-23T00:22:50;11.80;1.00
2611;DHT22;5612;51.134;17.058;2023-03-23T00:25:17;11.80;1.00
2611;DHT22;5612;51.134;17.058;2023-03-23T00:27:45;11.70;1.00
2611;DHT22;5612;51.134;17.058;2023-03-23T00:30:14;11.70;1.00
2611;DHT22;5612;51.134;17.058;2023-03-23T00:32:42;11.70;1.00
2611;DHT22;5612;51.134;17.058;2023-03-23T00:35:09;11.70;1.00
2611;DHT22;5612;51.134;17.058;2023-03-23T00:37:37;11.70;1.00
2611;DHT22;5612;51.134;17.058;2023-03-23T00:40:05;11.60;1.00
2611;DHT22;5612;51.134;17.058;2023-03-23T00:42:36;11.60;1.00
2611;DHT22;5612;51.134;17.058;2023-03-23T00:45:05;11.70;99.90
2611;DHT22;5612;51.134;17.058;2023-03-23T00:47:38;11.70;99.90
2611;DHT22;5612;51.134;17.058;2023-03-23T00:50:07;11.70;99.90
2611;DHT22;5612;51.134;17.058;2023-03-23T00:52:35;11.80;99.90
2611;DHT22;5612;51.134;17.058;2023-03-23T00:55:03;11.80;99.90
2611;DHT22;5612;51.134;17.058;2023-03-23T00:57:31;11.80;99.90
2611;DHT22;5612;51.134;17.058;2023-03-23T00:59:58;11.80;99.90
2611;DHT22;5612;51.134;17.058;2023-03-23T01:02:26;11.90;99.90
2611;DHT22;5612;51.134;17.058;2023-03-23T01:04:55;11.90;99.90
2611;DHT22;5612;51.134;17.058;2023-03-23T01:07:22;11.90;99.90
2611;DHT22;5612;51.134;17.058;2023-03-23T01:09:50;11.90;99.90
2611;DHT22;5612;51.134;17.058;2023-03-23T01:12:19;11.80;99.90
2611;DHT22;5612;51.134;17.058;2023-03-23T01:14:46;11.90;99.90
2611;DHT22;5612;51.134;17.058;2023-03-23T01:17:14;11.80;99.90
2611;DHT22;5612;51.134;17.058;2023-03-23T01:19:42;11.80;99.90
2611;DHT22;5612;51.134;17.058;2023-03-23T01:22:11;11.80;99.90
2611;DHT22;5612;51.134;17.058;2023-03-23T01:24:38;11.90;99.90
2611;DHT22;5612;51.134;17.058;2023-03-23T01:27:06;11.90;99.90
2611;DHT22;5612;51.134;17.058;2023-03-23T01:29:34;12.00;99.90
2611;DHT22;5612;51.134;17.058;2023-03-23T01:32:01;12.00;99.90
2611;DHT22;5612;51.134;17.058;2023-03-23T01:34:30;12.10;99.90
2611;DHT22;5612;51.134;17.058;2023-03-23T01:36:57;12.10;99.90
2611;DHT22;5612;51.134;17.058;2023-03-23T01:39:26;12.10;99.90
2611;DHT22;5612;51.134;17.058;2023-03-23T01:41:54;12.10;99.90
2611;DHT22;5612;51.134;17.058;2023-03-23T01:47:26;12.20;99.90
2611;DHT22;5612;51.134;17.058;2023-03-23T01:49:53;12.20;99.90
2611;DHT22;5612;51.134;17.058;2023-03-23T01:52:24;12.20;99.90
2611;DHT22;5612;51.134;17.058;2023-03-23T01:54:57;12.20;99.90
2611;DHT22;5612;51.134;17.058;2023-03-23T01:57:25;12.20;99.90
2611;DHT22;5612;51.134;17.058;2023-03-23T01:59:57;12.30;99.90
2611;DHT22;5612;51.134;17.058;2023-03-23T02:02:26;12.40;90.50
2611;DHT22;5612;51.134;17.058;2023-03-23T02:04:57;12.30;79.00
2611;DHT22;5612;51.134;17.058;2023-03-23T02:07:26;12.30;87.80
2611;DHT22;5612;51.134;17.058;2023-03-23T02:09:54;12.30;93.20
2611;DHT22;5612;51.134;17.058;2023-03-23T02:12:23;12.30;91.40
2611;DHT22;5612;51.134;17.058;2023-03-23T02:14:50;12.40;84.80
2611;DHT22;5612;51.134;17.058;2023-03-23T02:17:22;12.40;75.90
2611;DHT22;5612;51.134;17.058;2023-03-23T02:20:06;12.40;84.40
2611;DHT22;5612;51.134;17.058;2023-03-23T02:25:56;12.30;78.60
2611;DHT22;5612;51.134;17.058;2023-03-23T02:28:43;12.40;72.00
2611;DHT22;5612;51.134;17.058;2023-03-23T02:31:30;12.30;69.70
2611;DHT22;5612;51.134;17.058;2023-03-23T02:34:10;12.30;94.40
2611;DHT22;5612;51.134;17.058;2023-03-23T02:36:42;12.30;96.30
2611;DHT22;5612;51.134;17.058;2023-03-23T02:39:14;12.30;90.50
2611;DHT22;5612;51.134;17.058;2023-03-23T02:41:49;12.40;99.90
2611;DHT22;5612;51.134;17.058;2023-03-23T02:44:18;12.40;95.90
2611;DHT22;5612;51.134;17.058;2023-03-23T02:46:47;12.50;99.90
2611;DHT22;5612;51.134;17.058;2023-03-23T02:49:18;12.50;99.90
2611;DHT22;5612;51.134;17.058;2023-03-23T02:51:47;12.50;99.90
2611;DHT22;5612;51.134;17.058;2023-03-23T02:54:16;12.50;99.90
2611;DHT22;5612;51.134;17.058;2023-03-23T02:56:47;12.30;99.90
2611;DHT22;5612;51.134;17.058;2023-03-23T02:59:14;12.20;99.90
2611;DHT22;5612;51.134;17.058;2023-03-23T03:01:55;12.10;99.90
2611;DHT22;5612;51.134;17.058;2023-03-23T03:04:27;12.10;99.90
2611;DHT22;5612;51.134;17.058;2023-03-23T03:09:55;12.10;99.90
2611;DHT22;5612;51.134;17.058;2023-03-23T03:12:30;12.20;99.90
2611;DHT22;5612;51.134;17.058;2023-03-23T03:15:06;12.10;99.90
2611;DHT22;5612;51.134;17.058;2023-03-23T03:17:38;12.20;99.90
2611;DHT22;5612;51.134;17.058;2023-03-23T03:20:12;12.20;99.90
2611;DHT22;5612;51.134;17.058;2023-03-23T03:22:43;12.20;88.70
2611;DHT22;5612;51.134;17.058;2023-03-23T03:25:12;12.30;90.30
2611;DHT22;5612;51.134;17.058;2023-03-23T03:27:47;12.40;76.60
2611;DHT22;5612;51.134;17.058;2023-03-23T03:30:21;12.40;63.40
2611;DHT22;5612;51.134;17.058;2023-03-23T03:32:52;12.40;40.20
2611;DHT22;5612;51.134;17.058;2023-03-23T03:35:22;12.40;44.20
2611;DHT22;5612;51.134;17.058;2023-03-23T03:37:51;12.40;34.90
2611;DHT22;5612;51.134;17.058;2023-03-23T03:40:20;12.40;41.10
2611;DHT22;5612;51.134;17.058;2023-03-23T03:42:48;12.50;36.10
2611;DHT22;5612;51.134;17.058;2023-03-23T03:45:18;12.50;23.20
2611;DHT22;5612;51.134;17.058;2023-03-23T03:47:46;12.60;10.80
2611;DHT22;5612;51.134;17.058;2023-03-23T03:50:14;12.50;9.20
2611;DHT22;5612;51.134;17.058;2023-03-23T03:52:43;12.60;17.50
2611;DHT22;5612;51.134;17.058;2023-03-23T03:55:11;12.60;13.70
2611;DHT22;5612;51.134;17.058;2023-03-23T03:57:39;12.60;2.50
2611;DHT22;5612;51.134;17.058;2023-03-23T04:00:08;12.70;4.20
2611;DHT22;5612;51.134;17.058;2023-03-23T04:02:41;12.60;1.00
2611;DHT22;5612;51.134;17.058;2023-03-23T04:05:09;12.50;1.00
2611;DHT22;5612;51.134;17.058;2023-03-23T04:07:37;12.60;1.00
2611;DHT22;5612;51.134;17.058;2023-03-23T04:10:09;12.60;1.00
2611;DHT22;5612;51.134;17.058;2023-03-23T04:12:37;12.60;3.20
2611;DHT22;5612;51.134;17.058;2023-03-23T04:15:05;12.50;1.00
2611;DHT22;5612;51.134;17.058;2023-03-23T04:17:33;12.60;1.00
2611;DHT22;5612;51.134;17.058;2023-03-23T04:20:02;12.60;1.00
2611;DHT22;5612;51.134;17.058;2023-03-23T04:22:33;12.60;1.00
2611;DHT22;5612;51.134;17.058;2023-03-23T04:25:01;12.60;1.00
2611;DHT22;5612;51.134;17.058;2023-03-23T04:27:33;12.70;1.00
2611;DHT22;5612;51.134;17.058;2023-03-23T04:30:02;12.60;1.00
2611;DHT22;5612;51.134;17.058;2023-03-23T04:32:30;12.70;1.00
2611;DHT22;5612;51.134;17.058;2023-03-23T04:34:58;12.70;1.00
2611;DHT22;5612;51.134;17.058;2023-03-23T04:37:26;12.60;1.00
2611;DHT22;5612;51.134;17.058;2023-03-23T04:39:59;12.60;1.00
2611;DHT22;5612;51.134;17.058;2023-03-23T04:42:33;12.70;1.00
2611;DHT22;5612;51.134;17.058;2023-03-23T04:45:00;12.80;1.00
2611;DHT22;5612;51.134;17.058;2023-03-23T04:47:31;12.80;1.00
2611;DHT22;5612;51.134;17.058;2023-03-23T04:49:59;12.80;1.00
2611;DHT22;5612;51.134;17.058;2023-03-23T04:52:27;12.90;1.00
2611;DHT22;5612;51.134;17.058;2023-03-23T04:54:55;12.80;1.00
2611;DHT22;5612;51.134;17.058;2023-03-23T04:57:23;12.80;1.00
2611;DHT22;5612;51.134;17.058;2023-03-23T04:59:53;12.70;1.00
2611;DHT22;5612;51.134;17.058;2023-03-23T05:02:20;12.70;1.00
2611;DHT22;5612;51.134;17.058;2023-03-23T05:04:48;12.80;1.00
2611;DHT22;5612;51.134;17.058;2023-03-23T05:07:16;12.80;1.00
2611;DHT22;5612;51.134;17.058;2023-03-23T05:09:47;12.80;1.00
2611;DHT22;5612;51.134;17.058;2023-03-23T05:12:15;12.90;1.00
2611;DHT22;5612;51.134;17.058;2023-03-23T05:14:43;12.90;1.00
2611;DHT22;5612;51.134;17.058;2023-03-23T05:17:12;12.80;1.00
2611;DHT22;5612;51.134;17.058;2023-03-23T05:19:42;12.80;1.00
2611;DHT22;5612;51.134;17.058;2023-03-23T05:22:13;12.80;1.00
2611;DHT22;5612;51.134;17.058;2023-03-23T05:24:41;12.80;1.00
2611;DHT22;5612;51.134;17.058;2023-03-23T05:27:10;12.90;1.00
2611;DHT22;5612;51.134;17.058;2023-03-23T05:29:37;12.90;1.00
2611;DHT22;5612;51.134;17.058;2023-03-23T05:32:07;12.90;1.00
2611;DHT22;5612;51.134;17.058;2023-03-23T05:34:36;13.00;1.00
2611;DHT22;5612;51.134;17.058;2023-03-23T05:37:04;13.00;1.00
2611;DHT22;5612;51.134;17.058;2023-03-23T05:39:31;12.90;1.00
2611;DHT22;5612;51.134;17.058;2023-03-23T05:42:00;13.00;1.00
2611;DHT22;5612;51.134;17.058;2023-03-23T05:44:27;13.10;1.00
2611;DHT22;5612;51.134;17.058;2023-03-23T05:46:55;13.10;1.00
2611;DHT22;5612;51.134;17.058;2023-03-23T05:49:23;13.20;1.00
2611;DHT22;5612;51.134;17.058;2023-03-23T05:51:53;13.20;1.00
2611;DHT22;5612;51.134;17.058;2023-03-23T05:54:21;13.20;1.00
2611;DHT22;5612;51.134;17.058;2023-03-23T05:56:49;13.30;1.00
2611;DHT22;5612;51.134;17.058;2023-03-23T05:59:16;13.30;1.00
2611;DHT22;5612;51.134;17.058;2023-03-23T06:01:44;13.30;1.00
2611;DHT22;5612;51.134;17.058;2023-03-23T06:04:11;13.30;1.00
2611;DHT22;5612;51.134;17.058;2023-03-23T06:06:39;13.30;1.00
2611;DHT22;5612;51.134;17.058;2023-03-23T06:09:11;13.30;1.00
2611;DHT22;5612;51.134;17.058;2023-03-23T06:11:38;13.40;1.00
2611;DHT22;5612;51.134;17.058;2023-03-23T06:14:07;13.50;1.00
2611;DHT22;5612;51.134;17.058;2023-03-23T06:16:34;13.50;1.00
2611;DHT22;5612;51.134;17.058;2023-03-23T06:19:02;13.60;1.00
2611;DHT22;5612;51.134;17.058;2023-03-23T06:21:30;13.70;1.00
2611;DHT22;5612;51.134;17.058;2023-03-23T06:23:58;13.90;1.00
2611;DHT22;5612;51.134;17.058;2023-03-23T06:26:30;13.90;1.00
2611;DHT22;5612;51.134;17.058;2023-03-23T06:28:58;13.90;1.00
2611;DHT22;5612;51.134;17.058;2023-03-23T06:31:26;14.10;1.00
2611;DHT22;5612;51.134;17.058;2023-03-23T06:33:54;14.30;1.00
2611;DHT22;5612;51.134;17.058;2023-03-23T06:36:22;14.40;1.00
2611;DHT22;5612;51.134;17.058;2023-03-23T06:38:52;14.60;1.00
2611;DHT22;5612;51.134;17.058;2023-03-23T06:41:21;14.90;1.00
2611;DHT22;5612;51.134;17.058;2023-03-23T06:43:50;15.00;1.00
2611;DHT22;5612;51.134;17.058;2023-03-23T06:46:18;15.10;1.00
2611;DHT22;5612;51.134;17.058;2023-03-23T06:48:46;15.30;1.00
2611;DHT22;5612;51.134;17.058;2023-03-23T06:51:15;15.40;1.00
2611;DHT22;5612;51.134;17.058;2023-03-23T06:53:43;15.50;1.00
2611;DHT22;5612;51.134;17.058;2023-03-23T06:56:11;15.40;1.00
2611;DHT22;5612;51.134;17.058;2023-03-23T06:58:39;15.40;1.00
2611;DHT22;5612;51.134;17.058;2023-03-23T07:01:12;15.30;1.00
2611;DHT22;5612;51.134;17.058;2023-03-23T07:03:41;15.40;1.00
2611;DHT22;5612;51.134;17.058;2023-03-23T07:06:10;15.40;1.00
2611;DHT22;5612;51.134;17.058;2023-03-23T07:08:38;15.60;1.00
2611;DHT22;5612;51.134;17.058;2023-03-23T07:11:06;15.70;1.00
2611;DHT22;5612;51.134;17.058;2023-03-23T07:13:36;15.80;1.00
2611;DHT22;5612;51.134;17.058;2023-03-23T07:16:06;15.80;1.00
2611;DHT22;5612;51.134;17.058;2023-03-23T07:18:35;16.00;1.00
2611;DHT22;5612;51.134;17.058;2023-03-23T07:21:03;16.50;1.00
2611;DHT22;5612;51.134;17.058;2023-03-23T07:23:31;16.80;1.00
2611;DHT22;5612;51.134;17.058;2023-03-23T07:25:58;16.80;1.00
2611;DHT22;5612;51.134;17.058;2023-03-23T07:28:26;16.60;1.00
2611;DHT22;5612;51.134;17.058;2023-03-23T07:30:54;16.40;1.00
2611;DHT22;5612;51.134;17.058;2023-03-23T07:33:21;16.30;1.00
2611;DHT22;5612;51.134;17.058;2023-03-23T07:35:50;16.10;1.00
2611;DHT22;5612;51.134;17.058;2023-03-23T07:38:18;16.10;1.00
2611;DHT22;5612;51.134;17.058;2023-03-23T07:40:46;16.00;1.00
2611;DHT22;5612;51.134;17.058;2023-03-23T07:43:14;16.00;1.00
2611;DHT22;5612;51.134;17.058;2023-03-23T07:45:43;16.00;1.00
2611;DHT22;5612;51.134;17.058;2023-03-23T07:48:11;16.30;1.00
2611;DHT22;5612;51.134;17.058;2023-03-23T07:50:39;16.90;1.00
2611;DHT22;5612;51.134;17.058;2023-03-23T07:53:09;17.90;1.00
2611;DHT22;5612;51.134;17.058;2023-03-23T07:55:38;19.10;1.00
2611;DHT22;5612;51.134;17.058;2023-03-23T07:58:07;19.70;1.00
2611;DHT22;5612;51.134;17.058;2023-03-23T08:00:37;19.50;1.00
2611;DHT22;5612;51.134;17.058;2023-03-23T08:03:09;18.80;1.00
2611;DHT22;5612;51.134;17.058;2023-03-23T08:05:37;18.20;1.00
2611;DHT22;5612;51.134;17.058;2023-03-23T08:08:05;18.00;1.00
2611;DHT22;5612;51.134;17.058;2023-03-23T08:10:35;17.60;1.00
2611;DHT22;5612;51.134;17.058;2023-03-23T08:13:04;17.20;1.00
2611;DHT22;5612;51.134;17.058;2023-03-23T08:15:35;17.00;1.00
2611;DHT22;5612;51.134;17.058;2023-03-23T08:18:04;16.90;1.00
2611;DHT22;5612;51.134;17.058;2023-03-23T08:20:32;16.80;1.00
2611;DHT22;5612;51.134;17.058;2023-03-23T08:23:02;16.90;1.00
2611;DHT22;5612;51.134;17.058;2023-03-23T08:25:31;17.00;1.00
2611;DHT22;5612;51.134;17.058;2023-03-23T08:28:00;17.20;1.00
2611;DHT22;5612;51.134;17.058;2023-03-23T08:30:30;17.40;1.00
2611;DHT22;5612;51.134;17.058;2023-03-23T08:33:00;17.80;1.00
2611;DHT22;5612;51.134;17.058;2023-03-23T08:35:28;18.80;1.00
2611;DHT22;5612;51.134;17.058;2023-03-23T08:37:56;20.00;1.00
2611;DHT22;5612;51.134;17.058;2023-03-23T08:40:25;21.20;1.00
2611;DHT22;5612;51.134;17.058;2023-03-23T08:42:54;21.80;1.00
2611;DHT22;5612;51.134;17.058;2023-03-23T08:45:25;22.70;1.00
2611;DHT22;5612;51.134;17.058;2023-03-23T08:47:54;23.70;1.00
2611;DHT22;5612;51.134;17.058;2023-03-23T08:50:24;23.20;1.00
2611;DHT22;5612;51.134;17.058;2023-03-23T08:52:53;23.00;1.00
2611;DHT22;5612;51.134;17.058;2023-03-23T08:55:23;22.40;1.00
2611;DHT22;5612;51.134;17.058;2023-03-23T08:57:51;22.30;1.00
2611;DHT22;5612;51.134;17.058;2023-03-23T09:00:23;23.10;1.00
2611;DHT22;5612;51.134;17.058;2023-03-23T09:02:53;23.50;1.00
2611;DHT22;5612;51.134;17.058;2023-03-23T09:05:24;22.50;1.00
2611;DHT22;5612;51.134;17.058;2023-03-23T09:07:55;21.20;1.00
2611;DHT22;5612;51.134;17.058;2023-03-23T09:10:26;20.40;1.00
2611;DHT22;5612;51.134;17.058;2023-03-23T09:12:55;19.90;1.00
2611;DHT22;5612;51.134;17.058;2023-03-23T09:15:25;19.70;1.00
2611;DHT22;5612;51.134;17.058;2023-03-23T09:17:54;19.80;1.00
2611;DHT22;5612;51.134;17.058;2023-03-23T09:20:24;19.30;1.00
2611;DHT22;5612;51.134;17.058;2023-03-23T09:22:54;19.10;1.00
2611;DHT22;5612;51.134;17.058;2023-03-23T09:25:24;18.90;1.00
2611;DHT22;5612;51.134;17.058;2023-03-23T09:27:54;18.80;1.00
2611;DHT22;5612;51.134;17.058;2023-03-23T09:30:27;18.80;1.00
2611;DHT22;5612;51.134;17.058;2023-03-23T09:32:56;18.80;1.00
2611;DHT22;5612;51.134;17.058;2023-03-23T09:35:27;18.70;1.00
2611;DHT22;5612;51.134;17.058;2023-03-23T09:37:56;18.80;1.00
2611;DHT22;5612;51.134;17.058;2023-03-23T09:40:30;19.00;1.00
2611;DHT22;5612;51.134;17.058;2023-03-23T09:43:36;19.10;1.00
2611;DHT22;5612;51.134;17.058;2023-03-23T09:46:26;19.10;1.00
2611;DHT22;5612;51.134;17.058;2023-03-23T09:48:59;19.20;1.00
2611;DHT22;5612;51.134;17.058;2023-03-23T09:51:39;19.20;1.00
2611;DHT22;5612;51.134;17.058;2023-03-23T09:54:14;19.20;1.00
2611;DHT22;5612;51.134;17.058;2023-03-23T09:56:44;19.20;1.00
2611;DHT22;5612;51.134;17.058;2023-03-23T09:59:18;19.30;1.00
2611;DHT22;5612;51.134;17.058;2023-03-23T10:01:51;19.40;1.00
2611;DHT22;5612;51.134;17.058;2023-03-23T10:04:30;19.40;1.00
2611;DHT22;5612;51.134;17.058;2023-03-23T10:07:05;19.50;1.00
2611;DHT22;5612;51.134;17.058;2023-03-23T10:09:35;19.60;1.00
2611;DHT22;5612;51.134;17.058;2023-03-23T10:12:10;19.70;1.00
2611;DHT22;5612;51.134;17.058;2023-03-23T10:15:01;19.70;1.00
2611;DHT22;5612;51.134;17.058;2023-03-23T10:17:36;20.10;1.00
2611;DHT22;5612;51.134;17.058;2023-03-23T10:20:19;20.30;1.00
2611;DHT22;5612;51.134;17.058;2023-03-23T10:22:55;20.60;1.00
2611;DHT22;5612;51.134;17.058;2023-03-23T10:25:29;20.90;1.00
2611;DHT22;5612;51.134;17.058;2023-03-23T10:28:03;21.00;1.00
2611;DHT22;5612;51.134;17.058;2023-03-23T10:30:36;21.00;1.00
2611;DHT22;5612;51.134;17.058;2023-03-23T10:33:13;21.00;1.00
2611;DHT22;5612;51.134;17.058;2023-03-23T10:35:47;20.50;1.00
2611;DHT22;5612;51.134;17.058;2023-03-23T10:38:21;20.10;1.00
2611;DHT22;5612;51.134;17.058;2023-03-23T10:40:55;19.80;1.00
2611;DHT22;5612;51.134;17.058;2023-03-23T10:43:24;19.50;1.00
2611;DHT22;5612;51.134;17.058;2023-03-23T10:45:56;19.50;1.00
2611;DHT22;5612;51.134;17.058;2023-03-23T10:48:29;19.30;1.00
2611;DHT22;5612;51.134;17.058;2023-03-23T10:51:01;19.00;1.00
2611;DHT22;5612;51.134;17.058;2023-03-23T10:53:33;18.70;1.00
2611;DHT22;5612;51.134;17.058;2023-03-23T10:56:03;18.70;1.00
2611;DHT22;5612;51.134;17.058;2023-03-23T10:58:34;18.60;1.00
2611;DHT22;5612;51.134;17.058;2023-03-23T11:01:04;19.90;1.00
2611;DHT22;5612;51.134;17.058;2023-03-23T11:03:44;21.00;1.00
2611;DHT22;5612;51.134;17.058;2023-03-23T11:06:20;21.60;1.00
2611;DHT22;5612;51.134;17.058;2023-03-23T11:08:52;22.50;1.00
2611;DHT22;5612;51.134;17.058;2023-03-23T11:11:26;23.50;1.00
2611;DHT22;5612;51.134;17.058;2023-03-23T11:14:00;23.20;1.00
2611;DHT22;5612;51.134;17.058;2023-03-23T11:16:30;22.30;1.00
2611;DHT22;5612;51.134;17.058;2023-03-23T11:19:11;21.20;1.00
2611;DHT22;5612;51.134;17.058;2023-03-23T11:21:40;20.50;1.00
2611;DHT22;5612;51.134;17.058;2023-03-23T11:24:08;20.40;1.00
2611;DHT22;5612;51.134;17.058;2023-03-23T11:26:37;20.30;1.00
2611;DHT22;5612;51.134;17.058;2023-03-23T11:29:13;20.10;1.00
2611;DHT22;5612;51.134;17.058;2023-03-23T11:31:44;20.30;1.00
2611;DHT22;5612;51.134;17.058;2023-03-23T11:34:18;19.90;1.00
2611;DHT22;5612;51.134;17.058;2023-03-23T11:36:49;19.50;1.00
2611;DHT22;5612;51.134;17.058;2023-03-23T11:39:22;19.50;1.00
2611;DHT22;5612;51.134;17.058;2023-03-23T11:41:50;19.30;1.00
2611;DHT22;5612;51.134;17.058;2023-03-23T11:44:21;19.30;1.00
2611;DHT22;5612;51.134;17.058;2023-03-23T11:47:00;19.30;1.00
2611;DHT22;5612;51.134;17.058;2023-03-23T11:49:39;19.40;1.00
2611;DHT22;5612;51.134;17.058;2023-03-23T11:52:16;19.30;1.00
2611;DHT22;5612;51.134;17.058;2023-03-23T11:54:52;19.30;1.00
2611;DHT22;5612;51.134;17.058;2023-03-23T11:57:22;19.30;1.00
2611;DHT22;5612;51.134;17.058;2023-03-23T11:59:50;19.30;1.00
2611;DHT22;5612;51.134;17.058;2023-03-23T12:02:31;19.20;1.00
2611;DHT22;5612;51.134;17.058;2023-03-23T12:05:27;19.00;1.00
2611;DHT22;5612;51.134;17.058;2023-03-23T12:08:16;18.60;1.00
2611;DHT22;5612;51.134;17.058;2023-03-23T12:10:54;18.40;1.00
2611;DHT22;5612;51.134;17.058;2023-03-23T12:13:40;18.30;1.00
2611;DHT22;5612;51.134;17.058;2023-03-23T12:16:28;18.20;1.00
2611;DHT22;5612;51.134;17.058;2023-03-23T12:19:04;18.20;1.00
2611;DHT22;5612;51.134;17.058;2023-03-23T12:21:46;18.20;1.00
2611;DHT22;5612;51.134;17.058;2023-03-23T12:24:28;18.20;1.00
2611;DHT22;5612;51.134;17.058;2023-03-23T12:27:03;18.10;1.00
2611;DHT22;5612;51.134;17.058;2023-03-23T12:29:57;18.10;1.00
2611;DHT22;5612;51.134;17.058;2023-03-23T12:32:47;18.30;1.00
2611;DHT22;5612;51.134;17.058;2023-03-23T12:35:33;18.30;1.00
2611;DHT22;5612;51.134;17.058;2023-03-23T12:38:16;18.40;1.00
2611;DHT22;5612;51.134;17.058;2023-03-23T12:41:00;18.50;1.00
2611;DHT22;5612;51.134;17.058;2023-03-23T12:43:36;18.50;1.00
2611;DHT22;5612;51.134;17.058;2023-03-23T12:46:18;18.40;1.00
2611;DHT22;5612;51.134;17.058;2023-03-23T12:48:52;18.60;1.00
2611;DHT22;5612;51.134;17.058;2023-03-23T12:51:29;18.70;1.00
2611;DHT22;5612;51.134;17.058;2023-03-23T12:54:07;18.70;1.00
2611;DHT22;5612;51.134;17.058;2023-03-23T12:56:41;18.60;1.00
2611;DHT22;5612;51.134;17.058;2023-03-23T12:59:16;18.70;1.00
2611;DHT22;5612;51.134;17.058;2023-03-23T13:01:51;18.50;1.00
2611;DHT22;5612;51.134;17.058;2023-03-23T13:04:25;18.60;1.00
2611;DHT22;5612;51.134;17.058;2023-03-23T13:06:55;18.60;1.00
2611;DHT22;5612;51.134;17.058;2023-03-23T13:09:30;18.50;1.00
2611;DHT22;5612;51.134;17.058;2023-03-23T13:12:04;18.60;1.00
2611;DHT22;5612;51.134;17.058;2023-03-23T13:14:40;18.70;1.00
2611;DHT22;5612;51.134;17.058;2023-03-23T13:17:20;19.00;1.00
2611;DHT22;5612;51.134;17.058;2023-03-23T13:20:15;19.40;1.00
2611;DHT22;5612;51.134;17.058;2023-03-23T13:22:50;19.50;1.00
2611;DHT22;5612;51.134;17.058;2023-03-23T13:25:32;19.60;1.00
2611;DHT22;5612;51.134;17.058;2023-03-23T13:28:15;19.60;1.00
2611;DHT22;5612;51.134;17.058;2023-03-23T13:30:54;19.50;1.00
2611;DHT22;5612;51.134;17.058;2023-03-23T13:33:23;19.50;1.00
2611;DHT22;5612;51.134;17.058;2023-03-23T13:35:52;19.40;1.00
2611;DHT22;5612;51.134;17.058;2023-03-23T13:38:23;19.30;1.00
2611;DHT22;5612;51.134;17.058;2023-03-23T13:40:55;19.20;1.00
2611;DHT22;5612;51.134;17.058;2023-03-23T13:43:30;19.30;1.00
2611;DHT22;5612;51.134;17.058;2023-03-23T13:46:10;19.20;1.00
2611;DHT22;5612;51.134;17.058;2023-03-23T13:48:44;19.20;1.00
2611;DHT22;5612;51.134;17.058;2023-03-23T13:51:35;19.10;1.00
2611;DHT22;5612;51.134;17.058;2023-03-23T13:54:25;19.10;1.00
2611;DHT22;5612;51.134;17.058;2023-03-23T13:56:58;19.00;1.00
2611;DHT22;5612;51.134;17.058;2023-03-23T13:59:33;18.90;1.00
2611;DHT22;5612;51.134;17.058;2023-03-23T14:02:27;18.50;1.00
2611;DHT22;5612;51.134;17.058;2023-03-23T14:04:56;18.30;1.00
2611;DHT22;5612;51.134;17.058;2023-03-23T14:07:25;18.20;1.00
2611;DHT22;5612;51.134;17.058;2023-03-23T14:09:53;18.20;1.00
2611;DHT22;5612;51.134;17.058;2023-03-23T14:12:28;18.20;1.00
2611;DHT22;5612;51.134;17.058;2023-03-23T14:14:58;18.20;1.00
2611;DHT22;5612;51.134;17.058;2023-03-23T14:17:30;18.10;1.00
2611;DHT22;5612;51.134;17.058;2023-03-23T14:19:59;18.10;1.00
2611;DHT22;5612;51.134;17.058;2023-03-23T14:22:33;18.00;1.00
2611;DHT22;5612;51.134;17.058;2023-03-23T14:25:11;18.10;1.00
2611;DHT22;5612;51.134;17.058;2023-03-23T14:27:43;18.20;1.00
2611;DHT22;5612;51.134;17.058;2023-03-23T14:34:03;18.20;1.00
2611;DHT22;5612;51.134;17.058;2023-03-23T14:36:41;18.20;1.00
2611;DHT22;5612;51.134;17.058;2023-03-23T14:39:21;18.30;1.00
2611;DHT22;5612;51.134;17.058;2023-03-23T14:44:50;18.70;1.00
2611;DHT22;5612;51.134;17.058;2023-03-23T14:47:27;19.10;1.00
2611;DHT22;5612;51.134;17.058;2023-03-23T14:50:23;19.40;1.00
2611;DHT22;5612;51.134;17.058;2023-03-23T14:53:11;19.50;1.00
2611;DHT22;5612;51.134;17.058;2023-03-23T14:55:52;19.70;1.00
2611;DHT22;5612;51.134;17.058;2023-03-23T14:58:27;19.50;1.00
2611;DHT22;5612;51.134;17.058;2023-03-23T15:01:18;19.40;1.00
2611;DHT22;5612;51.134;17.058;2023-03-23T15:03:55;19.30;1.00
2611;DHT22;5612;51.134;17.058;2023-03-23T15:06:34;19.20;1.00
2611;DHT22;5612;51.134;17.058;2023-03-23T15:09:17;19.00;1.00
2611;DHT22;5612;51.134;17.058;2023-03-23T15:11:55;18.70;1.00
2611;DHT22;5612;51.134;17.058;2023-03-23T15:14:30;18.40;1.00
2611;DHT22;5612;51.134;17.058;2023-03-23T15:17:09;18.40;1.00
2611;DHT22;5612;51.134;17.058;2023-03-23T15:20:23;18.30;1.00
2611;DHT22;5612;51.134;17.058;2023-03-23T15:23:17;18.00;1.00
2611;DHT22;5612;51.134;17.058;2023-03-23T15:25:54;17.90;1.00
2611;DHT22;5612;51.134;17.058;2023-03-23T15:28:29;18.00;1.00
2611;DHT22;5612;51.134;17.058;2023-03-23T15:31:02;18.20;1.00
2611;DHT22;5612;51.134;17.058;2023-03-23T15:33:38;18.30;1.00
2611;DHT22;5612;51.134;17.058;2023-03-23T15:36:09;18.90;1.00
2611;DHT22;5612;51.134;17.058;2023-03-23T15:38:44;19.40;1.00
2611;DHT22;5612;51.134;17.058;2023-03-23T15:41:22;19.20;1.00
2611;DHT22;5612;51.134;17.058;2023-03-23T15:43:53;18.90;1.00
2611;DHT22;5612;51.134;17.058;2023-03-23T15:46:24;18.60;1.00
2611;DHT22;5612;51.134;17.058;2023-03-23T15:49:08;18.30;1.00
2611;DHT22;5612;51.134;17.058;2023-03-23T15:51:44;18.00;1.00
2611;DHT22;5612;51.134;17.058;2023-03-23T15:54:15;17.80;1.00
2611;DHT22;5612;51.134;17.058;2023-03-23T15:56:47;17.70;1.00
2611;DHT22;5612;51.134;17.058;2023-03-23T15:59:17;17.60;1.00
2611;DHT22;5612;51.134;17.058;2023-03-23T16:01:53;17.50;1.00
2611;DHT22;5612;51.134;17.058;2023-03-23T16:04:36;17.40;1.00
2611;DHT22;5612;51.134;17.058;2023-03-23T16:07:35;17.40;1.00
2611;DHT22;5612;51.134;17.058;2023-03-23T16:10:22;17.40;1.00
2611;DHT22;5612;51.134;17.058;2023-03-23T16:13:02;17.50;1.00
2611;DHT22;5612;51.134;17.058;2023-03-23T16:15:48;17.50;1.00
2611;DHT22;5612;51.134;17.058;2023-03-23T16:18:27;17.40;1.00
2611;DHT22;5612;51.134;17.058;2023-03-23T16:20:59;17.40;1.00
2611;DHT22;5612;51.134;17.058;2023-03-23T16:23:31;17.20;1.00
2611;DHT22;5612;51.134;17.058;2023-03-23T16:26:01;17.20;1.00
2611;DHT22;5612;51.134;17.058;2023-03-23T16:28:31;17.10;1.00
2611;DHT22;5612;51.134;17.058;2023-03-23T16:31:01;17.10;1.00
2611;DHT22;5612;51.134;17.058;2023-03-23T16:33:32;17.10;1.00
2611;DHT22;5612;51.134;17.058;2023-03-23T16:36:04;17.00;1.00
2611;DHT22;5612;51.134;17.058;2023-03-23T16:38:34;16.90;1.00
2611;DHT22;5612;51.134;17.058;2023-03-23T16:41:17;16.90;1.00
2611;DHT22;5612;51.134;17.058;2023-03-23T16:43:47;17.00;1.00
2611;DHT22;5612;51.134;17.058;2023-03-23T16:46:17;17.00;1.00
2611;DHT22;5612;51.134;17.058;2023-03-23T16:48:48;17.00;1.00